sensor_id;sensor_type;location;lat;lon;timestamp;temperature;humidity
7562;DHT22;3822;48.784;9.174;2022-12-11T00:00:49;1.90;91.00
7562;DHT22;3822;48.784;9.174;2022-12-11T00:03:17;1.90;91.00
7562;DHT22;3822;48.784;9.174;2022-12-11T00:05:44;1.90;91.00
7562;DHT22;3822;48.784;9.174;2022-12-11T00:08:11;1.90;91.00
7562;DHT22;3822;48.784;9.174;2022-12-11T00:10:38;1.90;91.00
7562;DHT22;3822;48.784;9.174;2022-12-11T00:13:06;1.90;90.90
7562;DHT22;3822;48.784;9.174;2022-12-11T00:15:32;3.00;91.40
7562;DHT22;3822;48.784;9.174;2022-12-11T00:17:58;1.90;90.90
7562;DHT22;3822;48.784;9.174;2022-12-11T00:20:25;1.90;90.90
7562;DHT22;3822;48.784;9.174;2022-12-11T00:22:52;1.90;90.90
7562;DHT22;3822;48.784;9.174;2022-12-11T00:25:18;1.90;90.80
7562;DHT22;3822;48.784;9.174;2022-12-11T00:27:45;1.90;90.80
7562;DHT22;3822;48.784;9.174;2022-12-11T00:30:13;1.90;90.80
7562;DHT22;3822;48.784;9.174;2022-12-11T00:32:42;2.00;90.80
7562;DHT22;3822;48.784;9.174;2022-12-11T00:35:09;2.00;90.80
7562;DHT22;3822;48.784;9.174;2022-12-11T00:37:36;2.00;90.70
7562;DHT22;3822;48.784;9.174;2022-12-11T00:40:04;3.30;91.30
7562;DHT22;3822;48.784;9.174;2022-12-11T00:42:31;2.00;90.70
7562;DHT22;3822;48.784;9.174;2022-12-11T00:44:58;2.00;90.80
7562;DHT22;3822;48.784;9.174;2022-12-11T00:47:25;2.00;90.70
7562;DHT22;3822;48.784;9.174;2022-12-11T00:49:51;2.10;90.80
7562;DHT22;3822;48.784;9.174;2022-12-11T00:52:19;2.10;90.80
7562;DHT22;3822;48.784;9.174;2022-12-11T00:54:46;2.00;90.70
7562;DHT22;3822;48.784;9.174;2022-12-11T00:57:12;2.60;91.00
7562;DHT22;3822;48.784;9.174;2022-12-11T00:59:39;2.10;90.80
7562;DHT22;3822;48.784;9.174;2022-12-11T01:02:11;2.10;90.70
7562;DHT22;3822;48.784;9.174;2022-12-11T01:04:38;2.10;90.80
7562;DHT22;3822;48.784;9.174;2022-12-11T01:07:04;2.10;90.70
7562;DHT22;3822;48.784;9.174;2022-12-11T01:09:31;2.10;90.70
7562;DHT22;3822;48.784;9.174;2022-12-11T01:12:17;2.10;90.70
7562;DHT22;3822;48.784;9.174;2022-12-11T01:14:43;2.10;90.70
7562;DHT22;3822;48.784;9.174;2022-12-11T01:17:10;2.10;90.70
7562;DHT22;3822;48.784;9.174;2022-12-11T01:19:36;2.10;90.70
7562;DHT22;3822;48.784;9.174;2022-12-11T01:22:03;2.20;90.70
7562;DHT22;3822;48.784;9.174;2022-12-11T01:24:29;2.20;90.70
7562;DHT22;3822;48.784;9.174;2022-12-11T01:26:56;2.90;90.90
7562;DHT22;3822;48.784;9.174;2022-12-11T01:29:22;2.20;90.70
7562;DHT22;3822;48.784;9.174;2022-12-11T01:31:49;2.30;90.70
7562;DHT22;3822;48.784;9.174;2022-12-11T01:34:16;2.30;90.60
7562;DHT22;3822;48.784;9.174;2022-12-11T01:36:42;2.30;90.60
7562;DHT22;3822;48.784;9.174;2022-12-11T01:39:08;2.40;90.70
7562;DHT22;3822;48.784;9.174;2022-12-11T01:41:35;2.40;90.60
7562;DHT22;3822;48.784;9.174;2022-12-11T01:46:34;2.40;90.60
7562;DHT22;3822;48.784;9.174;2022-12-11T01:49:05;2.80;90.60
7562;DHT22;3822;48.784;9.174;2022-12-11T01:51:41;2.40;90.30
7562;DHT22;3822;48.784;9.174;2022-12-11T01:54:23;2.30;90.20
7562;DHT22;3822;48.784;9.174;2022-12-11T01:56:52;2.30;90.20
7562;DHT22;3822;48.784;9.174;2022-12-11T01:59:23;2.30;90.20
7562;DHT22;3822;48.784;9.174;2022-12-11T02:04:39;2.30;90.10
7562;DHT22;3822;48.784;9.174;2022-12-11T02:07:07;2.30;90.10
7562;DHT22;3822;48.784;9.174;2022-12-11T02:09:37;2.30;90.10
7562;DHT22;3822;48.784;9.174;2022-12-11T02:20:44;2.30;90.10
7562;DHT22;3822;48.784;9.174;2022-12-11T02:30:06;2.30;90.00
7562;DHT22;3822;48.784;9.174;2022-12-11T02:32:42;2.30;90.00
7562;DHT22;3822;48.784;9.174;2022-12-11T02:35:27;2.20;90.00
7562;DHT22;3822;48.784;9.174;2022-12-11T02:38:02;2.30;90.00
7562;DHT22;3822;48.784;9.174;2022-12-11T02:40:31;2.40;90.00
7562;DHT22;3822;48.784;9.174;2022-12-11T02:43:02;2.30;90.00
7562;DHT22;3822;48.784;9.174;2022-12-11T02:45:31;2.40;90.20
7562;DHT22;3822;48.784;9.174;2022-12-11T02:48:02;2.40;89.90
7562;DHT22;3822;48.784;9.174;2022-12-11T02:50:29;2.40;89.90
7562;DHT22;3822;48.784;9.174;2022-12-11T02:52:57;2.40;89.80
7562;DHT22;3822;48.784;9.174;2022-12-11T02:55:25;2.40;89.70
7562;DHT22;3822;48.784;9.174;2022-12-11T02:58:04;2.40;89.70
7562;DHT22;3822;48.784;9.174;2022-12-11T03:00:38;2.40;89.80
7562;DHT22;3822;48.784;9.174;2022-12-11T03:03:05;2.40;89.80
7562;DHT22;3822;48.784;9.174;2022-12-11T03:05:31;2.40;89.90
7562;DHT22;3822;48.784;9.174;2022-12-11T03:07:58;2.30;89.90
7562;DHT22;3822;48.784;9.174;2022-12-11T03:10:24;2.30;90.00
7562;DHT22;3822;48.784;9.174;2022-12-11T03:12:52;2.20;90.00
7562;DHT22;3822;48.784;9.174;2022-12-11T03:15:25;2.20;90.10
7562;DHT22;3822;48.784;9.174;2022-12-11T03:18:09;2.50;90.20
7562;DHT22;3822;48.784;9.174;2022-12-11T03:20:48;2.20;90.20
7562;DHT22;3822;48.784;9.174;2022-12-11T03:23:48;2.20;90.20
7562;DHT22;3822;48.784;9.174;2022-12-11T03:26:19;2.30;90.30
7562;DHT22;3822;48.784;9.174;2022-12-11T03:28:57;2.30;90.30
7562;DHT22;3822;48.784;9.174;2022-12-11T03:31:38;2.30;90.30
7562;DHT22;3822;48.784;9.174;2022-12-11T03:34:17;2.30;90.30
7562;DHT22;3822;48.784;9.174;2022-12-11T03:36:49;2.30;90.40
7562;DHT22;3822;48.784;9.174;2022-12-11T03:39:30;3.70;90.90
7562;DHT22;3822;48.784;9.174;2022-12-11T03:42:05;2.30;90.40
7562;DHT22;3822;48.784;9.174;2022-12-11T03:44:34;2.30;90.40
7562;DHT22;3822;48.784;9.174;2022-12-11T03:47:05;2.70;90.60
7562;DHT22;3822;48.784;9.174;2022-12-11T03:49:39;2.50;90.50
7562;DHT22;3822;48.784;9.174;2022-12-11T03:52:09;2.30;90.40
7562;DHT22;3822;48.784;9.174;2022-12-11T03:54:39;2.30;90.50
7562;DHT22;3822;48.784;9.174;2022-12-11T03:57:07;2.30;90.50
7562;DHT22;3822;48.784;9.174;2022-12-11T03:59:35;2.30;90.80
7562;DHT22;3822;48.784;9.174;2022-12-11T04:02:04;2.30;90.50
7562;DHT22;3822;48.784;9.174;2022-12-11T04:04:40;2.30;90.50
7562;DHT22;3822;48.784;9.174;2022-12-11T04:07:08;2.30;90.50
7562;DHT22;3822;48.784;9.174;2022-12-11T04:09:35;2.30;90.50
7562;DHT22;3822;48.784;9.174;2022-12-11T04:12:02;2.30;90.50
7562;DHT22;3822;48.784;9.174;2022-12-11T04:14:29;2.30;90.50
7562;DHT22;3822;48.784;9.174;2022-12-11T04:17:14;2.30;90.50
7562;DHT22;3822;48.784;9.174;2022-12-11T04:20:01;2.30;90.50
7562;DHT22;3822;48.784;9.174;2022-12-11T04:22:47;2.30;90.40
7562;DHT22;3822;48.784;9.174;2022-12-11T04:25:31;2.20;90.30
7562;DHT22;3822;48.784;9.174;2022-12-11T04:27:58;2.20;90.20
7562;DHT22;3822;48.784;9.174;2022-12-11T04:30:25;2.20;90.20
7562;DHT22;3822;48.784;9.174;2022-12-11T04:32:53;2.20;90.10
7562;DHT22;3822;48.784;9.174;2022-12-11T04:35:20;2.20;90.00
7562;DHT22;3822;48.784;9.174;2022-12-11T04:37:47;2.10;89.80
7562;DHT22;3822;48.784;9.174;2022-12-11T04:40:16;2.10;89.70
7562;DHT22;3822;48.784;9.174;2022-12-11T04:42:44;2.00;89.50
7562;DHT22;3822;48.784;9.174;2022-12-11T04:45:11;2.00;89.50
7562;DHT22;3822;48.784;9.174;2022-12-11T04:47:39;2.00;89.60
7562;DHT22;3822;48.784;9.174;2022-12-11T04:50:07;2.20;89.70
7562;DHT22;3822;48.784;9.174;2022-12-11T04:52:35;2.90;90.10
7562;DHT22;3822;48.784;9.174;2022-12-11T04:55:06;1.90;89.40
7562;DHT22;3822;48.784;9.174;2022-12-11T04:57:34;1.90;89.50
7562;DHT22;3822;48.784;9.174;2022-12-11T05:00:00;1.80;89.30
7562;DHT22;3822;48.784;9.174;2022-12-11T05:02:29;1.80;89.40
7562;DHT22;3822;48.784;9.174;2022-12-11T05:04:59;2.00;89.50
7562;DHT22;3822;48.784;9.174;2022-12-11T05:07:26;1.80;89.40
7562;DHT22;3822;48.784;9.174;2022-12-11T05:09:52;1.70;89.30
7562;DHT22;3822;48.784;9.174;2022-12-11T05:12:19;1.70;89.30
7562;DHT22;3822;48.784;9.174;2022-12-11T05:14:45;1.70;89.50
7562;DHT22;3822;48.784;9.174;2022-12-11T05:17:12;1.70;89.60
7562;DHT22;3822;48.784;9.174;2022-12-11T05:19:38;1.80;89.80
7562;DHT22;3822;48.784;9.174;2022-12-11T05:22:05;1.80;89.80
7562;DHT22;3822;48.784;9.174;2022-12-11T05:24:31;1.80;89.80
7562;DHT22;3822;48.784;9.174;2022-12-11T05:26:58;1.80;89.70
7562;DHT22;3822;48.784;9.174;2022-12-11T05:29:24;1.90;89.70
7562;DHT22;3822;48.784;9.174;2022-12-11T05:31:50;1.90;89.60
7562;DHT22;3822;48.784;9.174;2022-12-11T05:34:17;1.90;89.60
7562;DHT22;3822;48.784;9.174;2022-12-11T05:36:44;1.90;89.50
7562;DHT22;3822;48.784;9.174;2022-12-11T05:39:10;2.00;89.50
7562;DHT22;3822;48.784;9.174;2022-12-11T05:41:37;2.20;89.60
7562;DHT22;3822;48.784;9.174;2022-12-11T05:44:03;2.00;89.30
7562;DHT22;3822;48.784;9.174;2022-12-11T05:46:30;2.00;89.20
7562;DHT22;3822;48.784;9.174;2022-12-11T05:48:59;2.10;89.30
7562;DHT22;3822;48.784;9.174;2022-12-11T05:51:27;2.10;89.10
7562;DHT22;3822;48.784;9.174;2022-12-11T05:53:56;2.50;89.50
7562;DHT22;3822;48.784;9.174;2022-12-11T05:56:26;2.00;89.00
7562;DHT22;3822;48.784;9.174;2022-12-11T05:58:55;2.00;89.00
7562;DHT22;3822;48.784;9.174;2022-12-11T06:01:33;2.00;89.50
7562;DHT22;3822;48.784;9.174;2022-12-11T06:04:03;2.00;88.80
7562;DHT22;3822;48.784;9.174;2022-12-11T06:06:30;1.90;88.70
7562;DHT22;3822;48.784;9.174;2022-12-11T06:08:59;1.90;88.90
7562;DHT22;3822;48.784;9.174;2022-12-11T06:11:29;2.00;89.00
7562;DHT22;3822;48.784;9.174;2022-12-11T06:13:56;1.90;89.00
7562;DHT22;3822;48.784;9.174;2022-12-11T06:16:24;2.00;89.00
7562;DHT22;3822;48.784;9.174;2022-12-11T06:18:51;3.90;90.30
7562;DHT22;3822;48.784;9.174;2022-12-11T06:21:28;1.90;89.00
7562;DHT22;3822;48.784;9.174;2022-12-11T06:23:58;1.90;89.20
7562;DHT22;3822;48.784;9.174;2022-12-11T06:26:26;1.90;89.30
7562;DHT22;3822;48.784;9.174;2022-12-11T06:28:53;1.90;89.40
7562;DHT22;3822;48.784;9.174;2022-12-11T06:31:20;1.90;89.50
7562;DHT22;3822;48.784;9.174;2022-12-11T06:33:47;1.90;89.60
7562;DHT22;3822;48.784;9.174;2022-12-11T06:36:17;1.90;89.60
7562;DHT22;3822;48.784;9.174;2022-12-11T06:38:45;1.80;89.60
7562;DHT22;3822;48.784;9.174;2022-12-11T06:41:13;1.80;89.70
7562;DHT22;3822;48.784;9.174;2022-12-11T06:43:41;2.00;90.00
7562;DHT22;3822;48.784;9.174;2022-12-11T06:46:10;2.50;90.20
7562;DHT22;3822;48.784;9.174;2022-12-11T06:48:39;1.80;89.90
7562;DHT22;3822;48.784;9.174;2022-12-11T06:51:08;1.70;89.80
7562;DHT22;3822;48.784;9.174;2022-12-11T06:53:42;1.70;89.80
7562;DHT22;3822;48.784;9.174;2022-12-11T06:56:11;1.70;89.90
7562;DHT22;3822;48.784;9.174;2022-12-11T06:58:40;1.70;90.00
7562;DHT22;3822;48.784;9.174;2022-12-11T07:01:23;2.80;90.40
7562;DHT22;3822;48.784;9.174;2022-12-11T07:03:53;1.60;90.00
7562;DHT22;3822;48.784;9.174;2022-12-11T07:06:20;2.70;90.40
7562;DHT22;3822;48.784;9.174;2022-12-11T07:08:47;1.70;90.00
7562;DHT22;3822;48.784;9.174;2022-12-11T07:11:15;1.70;90.00
7562;DHT22;3822;48.784;9.174;2022-12-11T07:13:42;2.30;90.20
7562;DHT22;3822;48.784;9.174;2022-12-11T07:16:10;2.00;90.10
7562;DHT22;3822;48.784;9.174;2022-12-11T07:18:43;1.60;90.00
7562;DHT22;3822;48.784;9.174;2022-12-11T07:21:13;1.60;90.00
7562;DHT22;3822;48.784;9.174;2022-12-11T07:23:40;1.60;90.00
7562;DHT22;3822;48.784;9.174;2022-12-11T07:26:11;1.60;90.00
7562;DHT22;3822;48.784;9.174;2022-12-11T07:28:40;1.60;90.10
7562;DHT22;3822;48.784;9.174;2022-12-11T07:31:13;1.60;90.10
7562;DHT22;3822;48.784;9.174;2022-12-11T07:33:42;1.60;90.10
7562;DHT22;3822;48.784;9.174;2022-12-11T07:36:10;2.20;90.30
7562;DHT22;3822;48.784;9.174;2022-12-11T07:38:37;1.60;90.10
7562;DHT22;3822;48.784;9.174;2022-12-11T07:41:07;1.60;90.10
7562;DHT22;3822;48.784;9.174;2022-12-11T07:43:35;1.60;90.10
7562;DHT22;3822;48.784;9.174;2022-12-11T07:46:08;1.60;90.00
7562;DHT22;3822;48.784;9.174;2022-12-11T07:48:39;1.60;90.00
7562;DHT22;3822;48.784;9.174;2022-12-11T07:51:12;1.60;89.90
7562;DHT22;3822;48.784;9.174;2022-12-11T07:53:41;1.60;90.10
7562;DHT22;3822;48.784;9.174;2022-12-11T07:56:12;1.60;90.00
7562;DHT22;3822;48.784;9.174;2022-12-11T07:58:39;1.60;90.00
7562;DHT22;3822;48.784;9.174;2022-12-11T08:01:14;1.60;90.00
7562;DHT22;3822;48.784;9.174;2022-12-11T08:03:42;1.60;90.00
7562;DHT22;3822;48.784;9.174;2022-12-11T08:06:10;1.60;90.00
7562;DHT22;3822;48.784;9.174;2022-12-11T08:08:37;1.60;89.90
7562;DHT22;3822;48.784;9.174;2022-12-11T08:11:06;1.60;89.90
7562;DHT22;3822;48.784;9.174;2022-12-11T08:13:34;1.80;91.50
7562;DHT22;3822;48.784;9.174;2022-12-11T08:16:06;2.00;92.70
7562;DHT22;3822;48.784;9.174;2022-12-11T08:18:34;2.20;93.40
7562;DHT22;3822;48.784;9.174;2022-12-11T08:21:10;3.60;94.20
7562;DHT22;3822;48.784;9.174;2022-12-11T08:23:39;2.60;93.80
7562;DHT22;3822;48.784;9.174;2022-12-11T08:26:08;2.70;93.50
7562;DHT22;3822;48.784;9.174;2022-12-11T08:28:36;5.00;94.40
7562;DHT22;3822;48.784;9.174;2022-12-11T08:31:04;2.90;93.70
7562;DHT22;3822;48.784;9.174;2022-12-11T08:33:31;3.00;93.50
7562;DHT22;3822;48.784;9.174;2022-12-11T08:36:01;3.10;93.20
7562;DHT22;3822;48.784;9.174;2022-12-11T08:38:30;3.20;92.90
7562;DHT22;3822;48.784;9.174;2022-12-11T08:40:56;5.60;93.80
7562;DHT22;3822;48.784;9.174;2022-12-11T08:43:23;5.50;93.70
7562;DHT22;3822;48.784;9.174;2022-12-11T08:45:50;3.40;92.60
7562;DHT22;3822;48.784;9.174;2022-12-11T08:48:16;3.40;92.20
7562;DHT22;3822;48.784;9.174;2022-12-11T08:50:43;3.90;91.90
7562;DHT22;3822;48.784;9.174;2022-12-11T08:53:09;4.30;91.50
7562;DHT22;3822;48.784;9.174;2022-12-11T08:55:36;3.40;90.80
7562;DHT22;3822;48.784;9.174;2022-12-11T08:58:02;3.30;90.50
7562;DHT22;3822;48.784;9.174;2022-12-11T09:00:29;3.30;90.30
7562;DHT22;3822;48.784;9.174;2022-12-11T09:02:55;3.20;90.10
7562;DHT22;3822;48.784;9.174;2022-12-11T09:05:22;3.20;90.00
7562;DHT22;3822;48.784;9.174;2022-12-11T09:07:48;3.20;90.00
7562;DHT22;3822;48.784;9.174;2022-12-11T09:10:18;3.10;89.90
7562;DHT22;3822;48.784;9.174;2022-12-11T09:12:44;3.10;89.70
7562;DHT22;3822;48.784;9.174;2022-12-11T09:15:12;3.10;89.60
7562;DHT22;3822;48.784;9.174;2022-12-11T09:17:38;3.10;89.50
7562;DHT22;3822;48.784;9.174;2022-12-11T09:20:05;3.10;89.50
7562;DHT22;3822;48.784;9.174;2022-12-11T09:22:32;3.10;89.50
7562;DHT22;3822;48.784;9.174;2022-12-11T09:24:59;3.10;89.30
7562;DHT22;3822;48.784;9.174;2022-12-11T09:27:25;3.00;88.80
7562;DHT22;3822;48.784;9.174;2022-12-11T09:29:52;3.00;89.10
7562;DHT22;3822;48.784;9.174;2022-12-11T09:32:18;3.00;89.20
7562;DHT22;3822;48.784;9.174;2022-12-11T09:34:45;3.60;89.80
7562;DHT22;3822;48.784;9.174;2022-12-11T09:37:11;3.00;89.20
7562;DHT22;3822;48.784;9.174;2022-12-11T09:39:37;3.00;89.20
7562;DHT22;3822;48.784;9.174;2022-12-11T09:42:18;3.00;89.20
7562;DHT22;3822;48.784;9.174;2022-12-11T09:44:58;3.10;89.10
7562;DHT22;3822;48.784;9.174;2022-12-11T09:47:35;3.10;89.00
7562;DHT22;3822;48.784;9.174;2022-12-11T09:50:21;3.40;89.60
7562;DHT22;3822;48.784;9.174;2022-12-11T09:53:12;3.20;90.00
7562;DHT22;3822;48.784;9.174;2022-12-11T09:56:06;3.30;90.40
7562;DHT22;3822;48.784;9.174;2022-12-11T10:04:47;3.70;91.10
7562;DHT22;3822;48.784;9.174;2022-12-11T10:10:40;3.70;90.00
7562;DHT22;3822;48.784;9.174;2022-12-11T10:13:47;3.70;89.60
7562;DHT22;3822;48.784;9.174;2022-12-11T10:16:57;3.70;89.10
7562;DHT22;3822;48.784;9.174;2022-12-11T10:19:29;3.70;88.80
7562;DHT22;3822;48.784;9.174;2022-12-11T10:21:58;4.10;88.90
7562;DHT22;3822;48.784;9.174;2022-12-11T10:27:23;3.80;88.10
7562;DHT22;3822;48.784;9.174;2022-12-11T10:33:08;3.80;87.40
7562;DHT22;3822;48.784;9.174;2022-12-11T10:35:58;4.60;87.80
7562;DHT22;3822;48.784;9.174;2022-12-11T10:38:31;3.80;87.10
7562;DHT22;3822;48.784;9.174;2022-12-11T10:41:03;3.80;87.20
7562;DHT22;3822;48.784;9.174;2022-12-11T10:43:39;3.90;87.50
7562;DHT22;3822;48.784;9.174;2022-12-11T10:46:24;3.90;87.60
7562;DHT22;3822;48.784;9.174;2022-12-11T10:48:54;3.90;87.70
7562;DHT22;3822;48.784;9.174;2022-12-11T10:51:25;3.90;87.70
7562;DHT22;3822;48.784;9.174;2022-12-11T10:56:33;4.00;87.80
7562;DHT22;3822;48.784;9.174;2022-12-11T10:59:01;3.70;87.60
7562;DHT22;3822;48.784;9.174;2022-12-11T11:01:29;3.60;87.70
7562;DHT22;3822;48.784;9.174;2022-12-11T11:04:13;3.50;87.80
7562;DHT22;3822;48.784;9.174;2022-12-11T11:06:40;4.90;89.20
7562;DHT22;3822;48.784;9.174;2022-12-11T11:09:32;5.30;89.70
7562;DHT22;3822;48.784;9.174;2022-12-11T11:12:01;3.50;88.30
7562;DHT22;3822;48.784;9.174;2022-12-11T11:14:28;5.10;89.70
7562;DHT22;3822;48.784;9.174;2022-12-11T11:16:56;4.60;89.20
7562;DHT22;3822;48.784;9.174;2022-12-11T11:22:03;3.70;88.40
7562;DHT22;3822;48.784;9.174;2022-12-11T11:25:00;4.70;89.30
7562;DHT22;3822;48.784;9.174;2022-12-11T11:27:35;3.70;88.40
7562;DHT22;3822;48.784;9.174;2022-12-11T11:30:29;3.80;88.40
7562;DHT22;3822;48.784;9.174;2022-12-11T11:33:02;3.80;88.20
7562;DHT22;3822;48.784;9.174;2022-12-11T11:35:31;3.80;88.00
7562;DHT22;3822;48.784;9.174;2022-12-11T11:38:17;3.70;87.90
7562;DHT22;3822;48.784;9.174;2022-12-11T11:43:52;3.70;87.90
7562;DHT22;3822;48.784;9.174;2022-12-11T11:52:43;3.70;87.80
7562;DHT22;3822;48.784;9.174;2022-12-11T11:55:17;3.60;87.40
7562;DHT22;3822;48.784;9.174;2022-12-11T11:57:58;3.60;87.70
7562;DHT22;3822;48.784;9.174;2022-12-11T12:00:29;3.60;87.80
7562;DHT22;3822;48.784;9.174;2022-12-11T12:03:00;3.60;87.90
7562;DHT22;3822;48.784;9.174;2022-12-11T12:05:36;3.70;88.90
7562;DHT22;3822;48.784;9.174;2022-12-11T12:14:19;3.90;89.20
7562;DHT22;3822;48.784;9.174;2022-12-11T12:20:14;3.90;88.40
7562;DHT22;3822;48.784;9.174;2022-12-11T12:25:48;4.00;88.30
7562;DHT22;3822;48.784;9.174;2022-12-11T12:31:31;4.00;88.10
7562;DHT22;3822;48.784;9.174;2022-12-11T12:34:25;4.00;88.10
7562;DHT22;3822;48.784;9.174;2022-12-11T12:42:59;4.00;89.40
7562;DHT22;3822;48.784;9.174;2022-12-11T12:45:45;4.00;88.80
7562;DHT22;3822;48.784;9.174;2022-12-11T12:48:26;3.90;88.70
7562;DHT22;3822;48.784;9.174;2022-12-11T12:50:54;3.90;88.80
7562;DHT22;3822;48.784;9.174;2022-12-11T12:53:27;3.80;88.70
7562;DHT22;3822;48.784;9.174;2022-12-11T12:55:58;5.00;89.90
7562;DHT22;3822;48.784;9.174;2022-12-11T12:58:42;4.50;89.50
7562;DHT22;3822;48.784;9.174;2022-12-11T13:01:18;3.90;89.00
7562;DHT22;3822;48.784;9.174;2022-12-11T13:03:54;3.90;88.80
7562;DHT22;3822;48.784;9.174;2022-12-11T13:06:37;3.90;89.00
7562;DHT22;3822;48.784;9.174;2022-12-11T13:09:25;3.90;89.10
7562;DHT22;3822;48.784;9.174;2022-12-11T13:11:54;3.90;89.10
7562;DHT22;3822;48.784;9.174;2022-12-11T13:14:29;4.00;89.20
7562;DHT22;3822;48.784;9.174;2022-12-11T13:19:48;4.00;89.20
7562;DHT22;3822;48.784;9.174;2022-12-11T13:25:28;4.00;89.00
7562;DHT22;3822;48.784;9.174;2022-12-11T13:28:29;4.00;89.00
7562;DHT22;3822;48.784;9.174;2022-12-11T13:33:55;4.20;89.00
7562;DHT22;3822;48.784;9.174;2022-12-11T13:36:29;4.00;88.30
7562;DHT22;3822;48.784;9.174;2022-12-11T13:39:19;4.00;88.50
7562;DHT22;3822;48.784;9.174;2022-12-11T13:41:55;4.00;88.60
7562;DHT22;3822;48.784;9.174;2022-12-11T13:44:30;4.00;88.50
7562;DHT22;3822;48.784;9.174;2022-12-11T13:47:01;4.00;88.50
7562;DHT22;3822;48.784;9.174;2022-12-11T13:49:33;4.30;88.70
7562;DHT22;3822;48.784;9.174;2022-12-11T13:52:02;4.10;88.60
7562;DHT22;3822;48.784;9.174;2022-12-11T13:54:31;4.10;88.50
7562;DHT22;3822;48.784;9.174;2022-12-11T13:59:36;4.10;88.50
7562;DHT22;3822;48.784;9.174;2022-12-11T14:02:28;4.00;88.40
7562;DHT22;3822;48.784;9.174;2022-12-11T14:05:07;4.00;88.60
7562;DHT22;3822;48.784;9.174;2022-12-11T14:10:31;3.90;88.00
7562;DHT22;3822;48.784;9.174;2022-12-11T14:15:25;3.80;87.90
7562;DHT22;3822;48.784;9.174;2022-12-11T14:17:53;3.80;87.90
7562;DHT22;3822;48.784;9.174;2022-12-11T14:20:29;3.80;87.90
7562;DHT22;3822;48.784;9.174;2022-12-11T14:23:34;3.80;88.00
7562;DHT22;3822;48.784;9.174;2022-12-11T14:26:10;3.70;87.80
7562;DHT22;3822;48.784;9.174;2022-12-11T14:28:42;3.80;87.90
7562;DHT22;3822;48.784;9.174;2022-12-11T14:31:14;5.40;89.30
7562;DHT22;3822;48.784;9.174;2022-12-11T14:33:47;3.60;87.80
7562;DHT22;3822;48.784;9.174;2022-12-11T14:36:16;3.60;87.80
7562;DHT22;3822;48.784;9.174;2022-12-11T14:38:49;3.60;88.00
7562;DHT22;3822;48.784;9.174;2022-12-11T14:41:36;3.50;87.80
7562;DHT22;3822;48.784;9.174;2022-12-11T14:44:16;3.50;87.80
7562;DHT22;3822;48.784;9.174;2022-12-11T14:46:53;3.50;87.80
7562;DHT22;3822;48.784;9.174;2022-12-11T14:49:36;3.40;87.60
7562;DHT22;3822;48.784;9.174;2022-12-11T14:52:16;3.60;87.90
7562;DHT22;3822;48.784;9.174;2022-12-11T14:54:49;3.40;87.80
7562;DHT22;3822;48.784;9.174;2022-12-11T14:57:24;3.40;87.70
7562;DHT22;3822;48.784;9.174;2022-12-11T14:59:55;3.40;87.70
7562;DHT22;3822;48.784;9.174;2022-12-11T15:02:28;3.60;87.90
7562;DHT22;3822;48.784;9.174;2022-12-11T15:05:15;3.70;88.10
7562;DHT22;3822;48.784;9.174;2022-12-11T15:07:54;3.40;87.90
7562;DHT22;3822;48.784;9.174;2022-12-11T15:10:42;3.50;88.00
7562;DHT22;3822;48.784;9.174;2022-12-11T15:13:29;3.40;87.80
7562;DHT22;3822;48.784;9.174;2022-12-11T15:15:57;3.50;87.80
7562;DHT22;3822;48.784;9.174;2022-12-11T15:18:35;3.50;87.60
7562;DHT22;3822;48.784;9.174;2022-12-11T15:21:03;3.50;87.50
7562;DHT22;3822;48.784;9.174;2022-12-11T15:23:55;3.50;87.60
7562;DHT22;3822;48.784;9.174;2022-12-11T15:26:44;3.50;87.40
7562;DHT22;3822;48.784;9.174;2022-12-11T15:34:52;3.50;87.20
7562;DHT22;3822;48.784;9.174;2022-12-11T15:39:55;3.50;87.20
7562;DHT22;3822;48.784;9.174;2022-12-11T15:45:10;3.50;87.40
7562;DHT22;3822;48.784;9.174;2022-12-11T15:47:42;3.50;87.40
7562;DHT22;3822;48.784;9.174;2022-12-11T15:50:16;3.50;87.30
7562;DHT22;3822;48.784;9.174;2022-12-11T15:52:43;3.50;87.30
7562;DHT22;3822;48.784;9.174;2022-12-11T15:55:10;3.50;87.30
7562;DHT22;3822;48.784;9.174;2022-12-11T15:57:41;3.50;87.20
7562;DHT22;3822;48.784;9.174;2022-12-11T16:00:15;3.50;87.30
7562;DHT22;3822;48.784;9.174;2022-12-11T16:02:44;3.50;87.40
7562;DHT22;3822;48.784;9.174;2022-12-11T16:05:12;3.50;87.40
7562;DHT22;3822;48.784;9.174;2022-12-11T16:07:38;3.40;87.30
7562;DHT22;3822;48.784;9.174;2022-12-11T16:10:06;3.50;87.50
7562;DHT22;3822;48.784;9.174;2022-12-11T16:12:36;3.50;87.50
7562;DHT22;3822;48.784;9.174;2022-12-11T16:15:03;3.50;87.80
7562;DHT22;3822;48.784;9.174;2022-12-11T16:17:30;3.50;87.80
7562;DHT22;3822;48.784;9.174;2022-12-11T16:19:56;3.50;87.60
7562;DHT22;3822;48.784;9.174;2022-12-11T16:22:23;3.50;87.50
7562;DHT22;3822;48.784;9.174;2022-12-11T16:24:53;3.50;87.40
7562;DHT22;3822;48.784;9.174;2022-12-11T16:27:20;5.00;89.50
7562;DHT22;3822;48.784;9.174;2022-12-11T16:29:47;3.40;87.50
7562;DHT22;3822;48.784;9.174;2022-12-11T16:32:14;3.50;87.60
7562;DHT22;3822;48.784;9.174;2022-12-11T16:34:41;3.40;87.60
7562;DHT22;3822;48.784;9.174;2022-12-11T16:37:12;3.40;87.70
7562;DHT22;3822;48.784;9.174;2022-12-11T16:39:45;3.40;87.80
7562;DHT22;3822;48.784;9.174;2022-12-11T16:42:11;3.50;88.30
7562;DHT22;3822;48.784;9.174;2022-12-11T16:44:38;3.30;88.40
7562;DHT22;3822;48.784;9.174;2022-12-11T16:47:05;3.20;88.70
7562;DHT22;3822;48.784;9.174;2022-12-11T16:49:33;3.40;89.10
7562;DHT22;3822;48.784;9.174;2022-12-11T16:52:00;3.20;89.10
7562;DHT22;3822;48.784;9.174;2022-12-11T16:54:26;3.20;89.30
7562;DHT22;3822;48.784;9.174;2022-12-11T16:56:53;3.10;89.40
7562;DHT22;3822;48.784;9.174;2022-12-11T16:59:19;3.10;89.60
7562;DHT22;3822;48.784;9.174;2022-12-11T17:01:46;3.10;89.60
7562;DHT22;3822;48.784;9.174;2022-12-11T17:04:15;3.10;89.70
7562;DHT22;3822;48.784;9.174;2022-12-11T17:06:41;3.20;89.70
7562;DHT22;3822;48.784;9.174;2022-12-11T17:09:08;4.30;90.20
7562;DHT22;3822;48.784;9.174;2022-12-11T17:11:34;3.20;89.50
7562;DHT22;3822;48.784;9.174;2022-12-11T17:14:01;3.20;89.40
7562;DHT22;3822;48.784;9.174;2022-12-11T17:16:27;5.20;90.50
7562;DHT22;3822;48.784;9.174;2022-12-11T17:18:56;3.20;89.30
7562;DHT22;3822;48.784;9.174;2022-12-11T17:21:23;3.30;89.40
7562;DHT22;3822;48.784;9.174;2022-12-11T17:23:50;3.30;89.40
7562;DHT22;3822;48.784;9.174;2022-12-11T17:26:17;3.20;89.30
7562;DHT22;3822;48.784;9.174;2022-12-11T17:28:44;3.30;89.40
7562;DHT22;3822;48.784;9.174;2022-12-11T17:31:14;3.30;89.40
7562;DHT22;3822;48.784;9.174;2022-12-11T17:33:43;3.20;89.30
7562;DHT22;3822;48.784;9.174;2022-12-11T17:36:30;3.20;89.40
7562;DHT22;3822;48.784;9.174;2022-12-11T17:38:57;3.20;89.40
7562;DHT22;3822;48.784;9.174;2022-12-11T17:41:24;3.20;89.40
7562;DHT22;3822;48.784;9.174;2022-12-11T17:43:52;3.20;89.40
7562;DHT22;3822;48.784;9.174;2022-12-11T17:46:19;3.50;89.70
7562;DHT22;3822;48.784;9.174;2022-12-11T17:48:47;3.20;89.50
7562;DHT22;3822;48.784;9.174;2022-12-11T17:51:16;3.20;89.60
7562;DHT22;3822;48.784;9.174;2022-12-11T17:53:50;3.10;89.50
7562;DHT22;3822;48.784;9.174;2022-12-11T17:56:17;3.10;89.60
7562;DHT22;3822;48.784;9.174;2022-12-11T17:58:43;3.10;89.70
7562;DHT22;3822;48.784;9.174;2022-12-11T18:01:11;3.00;89.50
7562;DHT22;3822;48.784;9.174;2022-12-11T18:03:39;3.00;89.60
7562;DHT22;3822;48.784;9.174;2022-12-11T18:06:11;2.90;89.60
7562;DHT22;3822;48.784;9.174;2022-12-11T18:08:39;3.00;90.20
7562;DHT22;3822;48.784;9.174;2022-12-11T18:11:12;2.80;89.70
7562;DHT22;3822;48.784;9.174;2022-12-11T18:13:41;2.80;89.90
7562;DHT22;3822;48.784;9.174;2022-12-11T18:16:17;2.80;90.00
7562;DHT22;3822;48.784;9.174;2022-12-11T18:18:46;2.80;90.00
7562;DHT22;3822;48.784;9.174;2022-12-11T18:21:16;2.80;90.00
7562;DHT22;3822;48.784;9.174;2022-12-11T18:23:44;4.50;90.70